sensor_id;sensor_type;location;lat;lon;timestamp;temperature;humidity
75893;DHT22;64572;50.950;3.676;2023-02-01T00:01:28;7.00;98.60
75893;DHT22;64572;50.950;3.676;2023-02-01T00:03:53;7.00;97.60
75893;DHT22;64572;50.950;3.676;2023-02-01T00:06:19;7.00;97.60
75893;DHT22;64572;50.950;3.676;2023-02-01T00:08:45;6.90;97.80
75893;DHT22;64572;50.950;3.676;2023-02-01T00:16:24;6.90;97.80
75893;DHT22;64572;50.950;3.676;2023-02-01T00:18:51;6.90;97.70
75893;DHT22;64572;50.950;3.676;2023-02-01T00:21:20;7.00;97.40
75893;DHT22;64572;50.950;3.676;2023-02-01T00:23:46;6.90;97.40
75893;DHT22;64572;50.950;3.676;2023-02-01T00:26:25;6.90;97.40
75893;DHT22;64572;50.950;3.676;2023-02-01T00:28:53;7.10;97.00
75893;DHT22;64572;50.950;3.676;2023-02-01T00:31:18;7.00;96.80
75893;DHT22;64572;50.950;3.676;2023-02-01T00:33:47;7.10;96.50
75893;DHT22;64572;50.950;3.676;2023-02-01T00:36:13;7.00;96.70
75893;DHT22;64572;50.950;3.676;2023-02-01T00:38:39;7.00;95.90
75893;DHT22;64572;50.950;3.676;2023-02-01T00:41:09;6.90;96.40
75893;DHT22;64572;50.950;3.676;2023-02-01T00:43:36;6.90;96.30
75893;DHT22;64572;50.950;3.676;2023-02-01T00:46:01;6.70;96.60
75893;DHT22;64572;50.950;3.676;2023-02-01T00:48:27;6.60;96.60
75893;DHT22;64572;50.950;3.676;2023-02-01T00:50:53;6.70;96.60
75893;DHT22;64572;50.950;3.676;2023-02-01T00:53:19;6.50;96.70
75893;DHT22;64572;50.950;3.676;2023-02-01T00:55:48;6.40;96.90
75893;DHT22;64572;50.950;3.676;2023-02-01T00:58:14;6.30;97.10
75893;DHT22;64572;50.950;3.676;2023-02-01T01:00:40;6.30;97.00
75893;DHT22;64572;50.950;3.676;2023-02-01T01:03:05;6.10;97.30
75893;DHT22;64572;50.950;3.676;2023-02-01T01:05:48;6.10;97.60
75893;DHT22;64572;50.950;3.676;2023-02-01T01:08:14;6.10;97.60
75893;DHT22;64572;50.950;3.676;2023-02-01T01:10:40;6.10;97.60
75893;DHT22;64572;50.950;3.676;2023-02-01T01:13:07;6.00;97.60
75893;DHT22;64572;50.950;3.676;2023-02-01T01:15:37;6.00;97.80
75893;DHT22;64572;50.950;3.676;2023-02-01T01:18:03;5.80;97.90
75893;DHT22;64572;50.950;3.676;2023-02-01T01:20:29;5.90;98.00
75893;DHT22;64572;50.950;3.676;2023-02-01T01:22:55;5.80;98.00
75893;DHT22;64572;50.950;3.676;2023-02-01T01:25:21;5.70;98.10
75893;DHT22;64572;50.950;3.676;2023-02-01T01:27:47;5.80;98.20
75893;DHT22;64572;50.950;3.676;2023-02-01T01:30:12;5.70;98.30
75893;DHT22;64572;50.950;3.676;2023-02-01T01:32:38;5.70;98.30
75893;DHT22;64572;50.950;3.676;2023-02-01T01:35:04;5.60;98.40
75893;DHT22;64572;50.950;3.676;2023-02-01T01:37:31;5.60;98.50
75893;DHT22;64572;50.950;3.676;2023-02-01T01:39:56;5.70;98.60
75893;DHT22;64572;50.950;3.676;2023-02-01T01:42:22;5.70;98.50
75893;DHT22;64572;50.950;3.676;2023-02-01T01:47:45;6.00;98.40
75893;DHT22;64572;50.950;3.676;2023-02-01T01:50:14;6.00;98.60
75893;DHT22;64572;50.950;3.676;2023-02-01T01:52:43;6.10;98.70
75893;DHT22;64572;50.950;3.676;2023-02-01T01:55:13;6.00;99.00
75893;DHT22;64572;50.950;3.676;2023-02-01T01:57:43;6.10;98.80
75893;DHT22;64572;50.950;3.676;2023-02-01T02:00:13;6.10;98.70
75893;DHT22;64572;50.950;3.676;2023-02-01T02:02:41;6.10;98.60
75893;DHT22;64572;50.950;3.676;2023-02-01T02:05:08;6.20;98.50
75893;DHT22;64572;50.950;3.676;2023-02-01T02:07:37;6.20;98.50
75893;DHT22;64572;50.950;3.676;2023-02-01T02:10:07;6.30;98.40
75893;DHT22;64572;50.950;3.676;2023-02-01T02:12:38;6.30;98.50
75893;DHT22;64572;50.950;3.676;2023-02-01T02:15:05;6.30;98.10
75893;DHT22;64572;50.950;3.676;2023-02-01T02:18:00;6.20;98.20
75893;DHT22;64572;50.950;3.676;2023-02-01T02:26:26;6.00;98.20
75893;DHT22;64572;50.950;3.676;2023-02-01T02:37:18;6.00;98.00
75893;DHT22;64572;50.950;3.676;2023-02-01T02:40:37;6.10;97.70
75893;DHT22;64572;50.950;3.676;2023-02-01T02:43:21;6.10;97.50
75893;DHT22;64572;50.950;3.676;2023-02-01T02:46:17;6.10;97.60
75893;DHT22;64572;50.950;3.676;2023-02-01T02:49:11;6.10;97.60
75893;DHT22;64572;50.950;3.676;2023-02-01T02:52:13;6.00;97.50
75893;DHT22;64572;50.950;3.676;2023-02-01T02:55:01;6.00;97.70
75893;DHT22;64572;50.950;3.676;2023-02-01T02:57:38;6.10;97.40
75893;DHT22;64572;50.950;3.676;2023-02-01T03:00:28;6.00;97.50
75893;DHT22;64572;50.950;3.676;2023-02-01T03:03:13;6.00;97.70
75893;DHT22;64572;50.950;3.676;2023-02-01T03:05:57;6.00;97.70
75893;DHT22;64572;50.950;3.676;2023-02-01T03:08:27;6.00;97.50
75893;DHT22;64572;50.950;3.676;2023-02-01T03:10:58;6.00;97.50
75893;DHT22;64572;50.950;3.676;2023-02-01T03:13:45;6.00;97.60
75893;DHT22;64572;50.950;3.676;2023-02-01T03:16:40;5.90;97.70
75893;DHT22;64572;50.950;3.676;2023-02-01T03:19:19;5.80;97.80
75893;DHT22;64572;50.950;3.676;2023-02-01T03:21:59;5.90;97.70
75893;DHT22;64572;50.950;3.676;2023-02-01T03:24:37;5.90;97.50
75893;DHT22;64572;50.950;3.676;2023-02-01T03:32:51;6.00;97.30
75893;DHT22;64572;50.950;3.676;2023-02-01T03:35:30;5.80;97.40
75893;DHT22;64572;50.950;3.676;2023-02-01T03:38:18;5.90;97.60
75893;DHT22;64572;50.950;3.676;2023-02-01T03:41:11;5.80;97.40
75893;DHT22;64572;50.950;3.676;2023-02-01T03:44:12;5.80;97.50
75893;DHT22;64572;50.950;3.676;2023-02-01T03:46:37;5.70;97.40
75893;DHT22;64572;50.950;3.676;2023-02-01T03:49:11;5.80;97.50
75893;DHT22;64572;50.950;3.676;2023-02-01T03:51:40;5.70;97.70
75893;DHT22;64572;50.950;3.676;2023-02-01T03:54:09;5.60;97.90
75893;DHT22;64572;50.950;3.676;2023-02-01T03:56:37;5.70;97.80
75893;DHT22;64572;50.950;3.676;2023-02-01T03:59:04;5.60;97.80
75893;DHT22;64572;50.950;3.676;2023-02-01T04:01:30;5.70;97.70
75893;DHT22;64572;50.950;3.676;2023-02-01T04:03:57;5.60;97.70
75893;DHT22;64572;50.950;3.676;2023-02-01T04:06:24;5.60;97.60
75893;DHT22;64572;50.950;3.676;2023-02-01T04:08:50;5.60;97.60
75893;DHT22;64572;50.950;3.676;2023-02-01T04:11:16;5.60;97.70
75893;DHT22;64572;50.950;3.676;2023-02-01T04:13:42;5.60;97.60
75893;DHT22;64572;50.950;3.676;2023-02-01T04:16:07;5.60;97.60
75893;DHT22;64572;50.950;3.676;2023-02-01T04:18:33;5.50;97.80
75893;DHT22;64572;50.950;3.676;2023-02-01T04:20:59;5.40;98.00
75893;DHT22;64572;50.950;3.676;2023-02-01T04:23:24;5.40;97.90
75893;DHT22;64572;50.950;3.676;2023-02-01T04:25:50;5.30;98.20
75893;DHT22;64572;50.950;3.676;2023-02-01T04:28:15;5.50;97.90
75893;DHT22;64572;50.950;3.676;2023-02-01T04:30:41;5.40;97.80
75893;DHT22;64572;50.950;3.676;2023-02-01T04:33:07;5.30;98.10
75893;DHT22;64572;50.950;3.676;2023-02-01T04:35:33;5.30;98.30
75893;DHT22;64572;50.950;3.676;2023-02-01T04:37:59;5.20;98.40
75893;DHT22;64572;50.950;3.676;2023-02-01T04:40:25;5.10;98.40
75893;DHT22;64572;50.950;3.676;2023-02-01T04:42:51;5.20;98.40
75893;DHT22;64572;50.950;3.676;2023-02-01T04:45:16;5.20;98.40
75893;DHT22;64572;50.950;3.676;2023-02-01T04:47:42;5.10;98.50
75893;DHT22;64572;50.950;3.676;2023-02-01T04:50:08;5.10;98.40
75893;DHT22;64572;50.950;3.676;2023-02-01T04:52:36;5.20;98.40
75893;DHT22;64572;50.950;3.676;2023-02-01T04:55:03;5.10;98.40
75893;DHT22;64572;50.950;3.676;2023-02-01T04:57:29;5.10;98.50
75893;DHT22;64572;50.950;3.676;2023-02-01T04:59:54;5.20;98.20
75893;DHT22;64572;50.950;3.676;2023-02-01T05:02:20;5.20;98.40
75893;DHT22;64572;50.950;3.676;2023-02-01T05:04:46;5.20;98.40
75893;DHT22;64572;50.950;3.676;2023-02-01T05:07:12;5.20;98.40
75893;DHT22;64572;50.950;3.676;2023-02-01T05:09:37;5.20;98.40
75893;DHT22;64572;50.950;3.676;2023-02-01T05:12:03;5.10;98.50
75893;DHT22;64572;50.950;3.676;2023-02-01T05:14:47;5.10;98.60
75893;DHT22;64572;50.950;3.676;2023-02-01T05:17:14;5.10;98.60
75893;DHT22;64572;50.950;3.676;2023-02-01T05:19:40;5.10;98.60
75893;DHT22;64572;50.950;3.676;2023-02-01T05:22:05;5.00;98.70
75893;DHT22;64572;50.950;3.676;2023-02-01T05:24:31;5.10;98.80
75893;DHT22;64572;50.950;3.676;2023-02-01T05:26:56;5.10;98.70
75893;DHT22;64572;50.950;3.676;2023-02-01T05:29:22;5.20;98.60
75893;DHT22;64572;50.950;3.676;2023-02-01T05:31:48;5.10;98.80
75893;DHT22;64572;50.950;3.676;2023-02-01T05:34:15;5.10;98.80
75893;DHT22;64572;50.950;3.676;2023-02-01T05:36:40;5.20;98.70
75893;DHT22;64572;50.950;3.676;2023-02-01T05:39:06;5.20;98.90
75893;DHT22;64572;50.950;3.676;2023-02-01T05:41:32;5.20;98.70
75893;DHT22;64572;50.950;3.676;2023-02-01T05:43:58;5.10;98.90
75893;DHT22;64572;50.950;3.676;2023-02-01T05:46:23;5.10;99.10
75893;DHT22;64572;50.950;3.676;2023-02-01T05:48:49;5.00;99.00
75893;DHT22;64572;50.950;3.676;2023-02-01T05:51:15;5.00;99.10
75893;DHT22;64572;50.950;3.676;2023-02-01T05:53:40;4.90;99.10
75893;DHT22;64572;50.950;3.676;2023-02-01T05:56:06;4.90;99.10
75893;DHT22;64572;50.950;3.676;2023-02-01T05:58:32;4.90;99.30
75893;DHT22;64572;50.950;3.676;2023-02-01T06:01:01;4.90;99.30
75893;DHT22;64572;50.950;3.676;2023-02-01T06:03:27;4.90;99.30
75893;DHT22;64572;50.950;3.676;2023-02-01T06:05:53;4.90;99.30
75893;DHT22;64572;50.950;3.676;2023-02-01T06:08:19;4.80;99.50
75893;DHT22;64572;50.950;3.676;2023-02-01T06:10:58;4.90;99.50
75893;DHT22;64572;50.950;3.676;2023-02-01T06:13:24;4.80;99.50
75893;DHT22;64572;50.950;3.676;2023-02-01T06:15:49;5.00;99.30
75893;DHT22;64572;50.950;3.676;2023-02-01T06:18:15;4.90;99.50
75893;DHT22;64572;50.950;3.676;2023-02-01T06:20:41;4.90;99.40
75893;DHT22;64572;50.950;3.676;2023-02-01T06:23:06;4.90;99.50
75893;DHT22;64572;50.950;3.676;2023-02-01T06:25:32;4.90;99.50
75893;DHT22;64572;50.950;3.676;2023-02-01T06:28:00;4.80;99.40
75893;DHT22;64572;50.950;3.676;2023-02-01T06:30:26;4.80;99.60
75893;DHT22;64572;50.950;3.676;2023-02-01T06:32:52;4.70;99.70
75893;DHT22;64572;50.950;3.676;2023-02-01T06:35:20;4.70;99.70
75893;DHT22;64572;50.950;3.676;2023-02-01T06:37:46;4.70;99.90
75893;DHT22;64572;50.950;3.676;2023-02-01T06:40:12;4.60;99.90
75893;DHT22;64572;50.950;3.676;2023-02-01T06:42:38;4.60;99.90
75893;DHT22;64572;50.950;3.676;2023-02-01T06:45:04;4.60;99.90
75893;DHT22;64572;50.950;3.676;2023-02-01T06:47:31;4.60;99.90
75893;DHT22;64572;50.950;3.676;2023-02-01T06:49:57;4.60;99.90
75893;DHT22;64572;50.950;3.676;2023-02-01T06:52:23;4.50;99.90
75893;DHT22;64572;50.950;3.676;2023-02-01T06:54:48;4.60;99.90
75893;DHT22;64572;50.950;3.676;2023-02-01T06:57:14;4.60;99.90
75893;DHT22;64572;50.950;3.676;2023-02-01T06:59:40;4.60;99.90
75893;DHT22;64572;50.950;3.676;2023-02-01T07:02:05;4.60;99.90
75893;DHT22;64572;50.950;3.676;2023-02-01T07:04:31;4.60;99.90
75893;DHT22;64572;50.950;3.676;2023-02-01T07:06:57;4.60;99.90
75893;DHT22;64572;50.950;3.676;2023-02-01T07:09:22;4.70;99.90
75893;DHT22;64572;50.950;3.676;2023-02-01T07:11:48;4.70;99.90
75893;DHT22;64572;50.950;3.676;2023-02-01T07:14:14;4.60;99.90
75893;DHT22;64572;50.950;3.676;2023-02-01T07:16:39;4.60;99.90
75893;DHT22;64572;50.950;3.676;2023-02-01T07:19:05;4.60;99.90
75893;DHT22;64572;50.950;3.676;2023-02-01T07:21:31;4.70;99.90
75893;DHT22;64572;50.950;3.676;2023-02-01T07:23:58;4.70;99.90
75893;DHT22;64572;50.950;3.676;2023-02-01T07:26:23;4.90;99.50
75893;DHT22;64572;50.950;3.676;2023-02-01T07:28:49;4.80;99.40
75893;DHT22;64572;50.950;3.676;2023-02-01T07:31:17;4.70;99.60
75893;DHT22;64572;50.950;3.676;2023-02-01T07:33:47;4.80;99.70
75893;DHT22;64572;50.950;3.676;2023-02-01T07:36:15;4.80;99.70
75893;DHT22;64572;50.950;3.676;2023-02-01T07:38:41;4.80;99.70
75893;DHT22;64572;50.950;3.676;2023-02-01T07:41:07;4.80;99.90
75893;DHT22;64572;50.950;3.676;2023-02-01T07:43:34;4.90;99.60
75893;DHT22;64572;50.950;3.676;2023-02-01T07:46:00;5.00;99.40
75893;DHT22;64572;50.950;3.676;2023-02-01T07:48:26;5.00;99.50
75893;DHT22;64572;50.950;3.676;2023-02-01T07:51:04;5.10;99.30
75893;DHT22;64572;50.950;3.676;2023-02-01T07:53:33;5.20;99.10
75893;DHT22;64572;50.950;3.676;2023-02-01T07:55:59;5.20;99.10
75893;DHT22;64572;50.950;3.676;2023-02-01T07:58:25;5.30;99.00
75893;DHT22;64572;50.950;3.676;2023-02-01T08:00:52;5.40;98.70
75893;DHT22;64572;50.950;3.676;2023-02-01T08:03:37;5.40;98.80
75893;DHT22;64572;50.950;3.676;2023-02-01T08:06:03;5.40;98.70
75893;DHT22;64572;50.950;3.676;2023-02-01T08:08:29;5.50;98.60
75893;DHT22;64572;50.950;3.676;2023-02-01T08:10:59;5.50;98.70
75893;DHT22;64572;50.950;3.676;2023-02-01T08:13:25;5.60;98.30
75893;DHT22;64572;50.950;3.676;2023-02-01T08:15:51;5.60;98.30
75893;DHT22;64572;50.950;3.676;2023-02-01T08:18:17;5.60;98.20
75893;DHT22;64572;50.950;3.676;2023-02-01T08:20:44;5.70;98.10
75893;DHT22;64572;50.950;3.676;2023-02-01T08:23:11;5.70;98.10
75893;DHT22;64572;50.950;3.676;2023-02-01T08:25:37;5.80;97.80
75893;DHT22;64572;50.950;3.676;2023-02-01T08:28:05;5.90;97.90
75893;DHT22;64572;50.950;3.676;2023-02-01T08:30:31;5.90;97.80
75893;DHT22;64572;50.950;3.676;2023-02-01T08:32:57;5.90;97.70
75893;DHT22;64572;50.950;3.676;2023-02-01T08:35:23;6.10;97.20
75893;DHT22;64572;50.950;3.676;2023-02-01T08:37:52;6.10;97.50
75893;DHT22;64572;50.950;3.676;2023-02-01T08:40:17;6.10;97.20
75893;DHT22;64572;50.950;3.676;2023-02-01T08:42:44;6.20;97.40
75893;DHT22;64572;50.950;3.676;2023-02-01T08:45:17;6.20;97.20
75893;DHT22;64572;50.950;3.676;2023-02-01T08:47:44;6.20;97.10
75893;DHT22;64572;50.950;3.676;2023-02-01T08:50:10;6.30;96.90
75893;DHT22;64572;50.950;3.676;2023-02-01T08:52:36;6.30;96.90
75893;DHT22;64572;50.950;3.676;2023-02-01T08:55:01;6.20;97.30
75893;DHT22;64572;50.950;3.676;2023-02-01T08:57:27;6.30;97.30
75893;DHT22;64572;50.950;3.676;2023-02-01T08:59:53;6.40;97.10
75893;DHT22;64572;50.950;3.676;2023-02-01T09:02:18;6.40;96.90
75893;DHT22;64572;50.950;3.676;2023-02-01T09:04:44;6.50;96.70
75893;DHT22;64572;50.950;3.676;2023-02-01T09:07:10;6.70;96.60
75893;DHT22;64572;50.950;3.676;2023-02-01T09:09:36;6.70;96.20
75893;DHT22;64572;50.950;3.676;2023-02-01T09:12:02;6.90;96.30
75893;DHT22;64572;50.950;3.676;2023-02-01T09:14:28;7.10;96.10
75893;DHT22;64572;50.950;3.676;2023-02-01T09:16:54;7.10;95.90
75893;DHT22;64572;50.950;3.676;2023-02-01T09:19:20;7.10;95.80
75893;DHT22;64572;50.950;3.676;2023-02-01T09:21:46;7.20;96.00
75893;DHT22;64572;50.950;3.676;2023-02-01T09:24:11;7.40;95.00
75893;DHT22;64572;50.950;3.676;2023-02-01T09:26:37;7.60;95.10
75893;DHT22;64572;50.950;3.676;2023-02-01T09:29:04;7.80;94.30
75893;DHT22;64572;50.950;3.676;2023-02-01T09:31:31;7.90;94.30
75893;DHT22;64572;50.950;3.676;2023-02-01T09:33:57;7.90;94.40
75893;DHT22;64572;50.950;3.676;2023-02-01T09:36:23;7.90;93.80
75893;DHT22;64572;50.950;3.676;2023-02-01T09:38:49;8.10;93.60
75893;DHT22;64572;50.950;3.676;2023-02-01T09:44:27;8.30;92.60
75893;DHT22;64572;50.950;3.676;2023-02-01T09:46:58;8.30;93.20
75893;DHT22;64572;50.950;3.676;2023-02-01T09:49:43;8.50;92.60
75893;DHT22;64572;50.950;3.676;2023-02-01T09:52:13;8.60;92.20
75893;DHT22;64572;50.950;3.676;2023-02-01T09:54:54;8.90;91.90
75893;DHT22;64572;50.950;3.676;2023-02-01T09:57:26;9.10;91.60
75893;DHT22;64572;50.950;3.676;2023-02-01T10:00:06;9.40;91.30
75893;DHT22;64572;50.950;3.676;2023-02-01T10:02:35;8.90;91.00
75893;DHT22;64572;50.950;3.676;2023-02-01T10:05:03;8.50;92.00
75893;DHT22;64572;50.950;3.676;2023-02-01T10:10:49;8.30;92.60
75893;DHT22;64572;50.950;3.676;2023-02-01T10:13:47;8.30;93.60
75893;DHT22;64572;50.950;3.676;2023-02-01T10:16:17;8.20;93.00
75893;DHT22;64572;50.950;3.676;2023-02-01T10:21:48;8.40;93.10
75893;DHT22;64572;50.950;3.676;2023-02-01T10:29:37;8.50;91.80
75893;DHT22;64572;50.950;3.676;2023-02-01T10:32:14;8.50;91.00
75893;DHT22;64572;50.950;3.676;2023-02-01T10:34:41;8.40;92.30
75893;DHT22;64572;50.950;3.676;2023-02-01T10:37:20;8.60;92.10
75893;DHT22;64572;50.950;3.676;2023-02-01T10:39:49;8.60;92.10
75893;DHT22;64572;50.950;3.676;2023-02-01T10:42:26;8.70;92.00
75893;DHT22;64572;50.950;3.676;2023-02-01T10:44:53;8.60;92.30
75893;DHT22;64572;50.950;3.676;2023-02-01T10:47:19;8.80;91.40
75893;DHT22;64572;50.950;3.676;2023-02-01T10:52:52;9.10;92.00
75893;DHT22;64572;50.950;3.676;2023-02-01T10:58:17;9.50;88.80
75893;DHT22;64572;50.950;3.676;2023-02-01T11:00:47;9.50;87.80
75893;DHT22;64572;50.950;3.676;2023-02-01T11:03:31;9.70;88.00
75893;DHT22;64572;50.950;3.676;2023-02-01T11:05:57;9.70;88.50
75893;DHT22;64572;50.950;3.676;2023-02-01T11:08:23;9.30;87.70
75893;DHT22;64572;50.950;3.676;2023-02-01T11:10:59;9.20;89.00
75893;DHT22;64572;50.950;3.676;2023-02-01T11:13:29;9.30;86.00
75893;DHT22;64572;50.950;3.676;2023-02-01T11:15:56;9.30;85.30
75893;DHT22;64572;50.950;3.676;2023-02-01T11:18:27;9.50;86.80
75893;DHT22;64572;50.950;3.676;2023-02-01T11:20:53;9.70;85.70
75893;DHT22;64572;50.950;3.676;2023-02-01T11:23:23;9.90;83.70
75893;DHT22;64572;50.950;3.676;2023-02-01T11:25:50;10.00;83.40
75893;DHT22;64572;50.950;3.676;2023-02-01T11:28:16;10.00;85.90
75893;DHT22;64572;50.950;3.676;2023-02-01T11:30:45;9.70;84.00
75893;DHT22;64572;50.950;3.676;2023-02-01T11:33:18;9.90;84.90
75893;DHT22;64572;50.950;3.676;2023-02-01T11:35:45;10.00;83.00
75893;DHT22;64572;50.950;3.676;2023-02-01T11:40:47;10.30;80.40
75893;DHT22;64572;50.950;3.676;2023-02-01T11:43:26;10.10;80.50
75893;DHT22;64572;50.950;3.676;2023-02-01T11:46:00;10.30;82.50
75893;DHT22;64572;50.950;3.676;2023-02-01T11:48:29;10.20;81.10
75893;DHT22;64572;50.950;3.676;2023-02-01T11:56:48;10.70;78.30
75893;DHT22;64572;50.950;3.676;2023-02-01T11:59:25;11.00;80.10
75893;DHT22;64572;50.950;3.676;2023-02-01T12:05:14;11.50;76.20
75893;DHT22;64572;50.950;3.676;2023-02-01T12:10:59;10.40;79.60
75893;DHT22;64572;50.950;3.676;2023-02-01T12:14:01;10.70;79.10
75893;DHT22;64572;50.950;3.676;2023-02-01T12:24:40;11.90;74.60
75893;DHT22;64572;50.950;3.676;2023-02-01T12:27:31;11.90;73.30
75893;DHT22;64572;50.950;3.676;2023-02-01T12:41:18;10.90;76.90
75893;DHT22;64572;50.950;3.676;2023-02-01T12:46:32;11.10;75.40
75893;DHT22;64572;50.950;3.676;2023-02-01T12:51:44;11.30;76.00
75893;DHT22;64572;50.950;3.676;2023-02-01T12:57:01;11.30;76.50
75893;DHT22;64572;50.950;3.676;2023-02-01T12:59:32;11.50;75.80
75893;DHT22;64572;50.950;3.676;2023-02-01T13:07:16;11.00;77.70
75893;DHT22;64572;50.950;3.676;2023-02-01T13:13:10;11.30;77.40
75893;DHT22;64572;50.950;3.676;2023-02-01T13:15:21;11.40;76.60
75893;DHT22;64572;50.950;3.676;2023-02-01T13:17:49;11.70;75.40
75893;DHT22;64572;50.950;3.676;2023-02-01T13:22:50;11.70;75.60
75893;DHT22;64572;50.950;3.676;2023-02-01T13:25:37;11.50;75.50
75893;DHT22;64572;50.950;3.676;2023-02-01T13:28:12;11.40;76.40
75893;DHT22;64572;50.950;3.676;2023-02-01T13:36:26;11.30;76.40
75893;DHT22;64572;50.950;3.676;2023-02-01T13:44:13;11.00;78.30
75893;DHT22;64572;50.950;3.676;2023-02-01T13:46:41;10.70;78.10
75893;DHT22;64572;50.950;3.676;2023-02-01T13:49:18;10.70;79.20
75893;DHT22;64572;50.950;3.676;2023-02-01T13:51:49;11.00;79.90
75893;DHT22;64572;50.950;3.676;2023-02-01T13:56:56;11.40;79.00
75893;DHT22;64572;50.950;3.676;2023-02-01T13:59:49;11.80;77.50
75893;DHT22;64572;50.950;3.676;2023-02-01T14:05:10;11.50;78.20
75893;DHT22;64572;50.950;3.676;2023-02-01T14:07:36;11.30;78.90
75893;DHT22;64572;50.950;3.676;2023-02-01T14:26:28;9.90;83.00
75893;DHT22;64572;50.950;3.676;2023-02-01T14:34:13;9.80;84.70
75893;DHT22;64572;50.950;3.676;2023-02-01T14:36:45;9.80;86.20
75893;DHT22;64572;50.950;3.676;2023-02-01T14:41:58;9.70;85.40
75893;DHT22;64572;50.950;3.676;2023-02-01T14:44:33;9.70;86.50
75893;DHT22;64572;50.950;3.676;2023-02-01T14:47:35;9.60;88.90
75893;DHT22;64572;50.950;3.676;2023-02-01T14:52:36;9.60;87.90
75893;DHT22;64572;50.950;3.676;2023-02-01T14:55:12;9.60;87.70
75893;DHT22;64572;50.950;3.676;2023-02-01T14:57:40;9.60;87.60
75893;DHT22;64572;50.950;3.676;2023-02-01T15:00:29;9.60;88.20
75893;DHT22;64572;50.950;3.676;2023-02-01T15:03:12;9.50;89.10
75893;DHT22;64572;50.950;3.676;2023-02-01T15:05:41;9.60;87.50
75893;DHT22;64572;50.950;3.676;2023-02-01T15:08:17;9.50;88.30
75893;DHT22;64572;50.950;3.676;2023-02-01T15:10:47;9.60;87.80
75893;DHT22;64572;50.950;3.676;2023-02-01T15:13:25;9.60;88.00
75893;DHT22;64572;50.950;3.676;2023-02-01T15:16:11;9.50;88.60
75893;DHT22;64572;50.950;3.676;2023-02-01T15:18:38;9.50;89.90
75893;DHT22;64572;50.950;3.676;2023-02-01T15:21:05;9.50;89.10
75893;DHT22;64572;50.950;3.676;2023-02-01T15:23:31;9.40;88.60
75893;DHT22;64572;50.950;3.676;2023-02-01T15:25:58;9.40;88.50
75893;DHT22;64572;50.950;3.676;2023-02-01T15:28:25;9.40;89.20
75893;DHT22;64572;50.950;3.676;2023-02-01T15:31:03;9.30;89.10
75893;DHT22;64572;50.950;3.676;2023-02-01T15:33:30;9.20;90.00
75893;DHT22;64572;50.950;3.676;2023-02-01T15:36:17;9.30;89.50
75893;DHT22;64572;50.950;3.676;2023-02-01T15:38:44;9.20;90.10
75893;DHT22;64572;50.950;3.676;2023-02-01T15:46:30;9.10;90.20
75893;DHT22;64572;50.950;3.676;2023-02-01T15:48:56;9.10;90.60
75893;DHT22;64572;50.950;3.676;2023-02-01T15:51:28;9.10;90.40
75893;DHT22;64572;50.950;3.676;2023-02-01T15:54:04;9.00;91.00
75893;DHT22;64572;50.950;3.676;2023-02-01T15:56:36;9.00;91.20
75893;DHT22;64572;50.950;3.676;2023-02-01T15:59:06;9.00;91.10
75893;DHT22;64572;50.950;3.676;2023-02-01T16:01:38;9.00;91.30
75893;DHT22;64572;50.950;3.676;2023-02-01T16:04:14;8.90;91.50
75893;DHT22;64572;50.950;3.676;2023-02-01T16:06:55;9.00;91.50
75893;DHT22;64572;50.950;3.676;2023-02-01T16:09:23;8.90;91.70
75893;DHT22;64572;50.950;3.676;2023-02-01T16:12:00;8.90;91.90
75893;DHT22;64572;50.950;3.676;2023-02-01T16:14:26;8.90;92.00
75893;DHT22;64572;50.950;3.676;2023-02-01T16:16:55;8.90;92.00
75893;DHT22;64572;50.950;3.676;2023-02-01T16:19:21;8.90;92.40
75893;DHT22;64572;50.950;3.676;2023-02-01T16:21:49;8.90;92.50
75893;DHT22;64572;50.950;3.676;2023-02-01T16:24:15;8.80;92.70
75893;DHT22;64572;50.950;3.676;2023-02-01T16:26:40;8.90;92.50
75893;DHT22;64572;50.950;3.676;2023-02-01T16:29:06;8.80;92.80
75893;DHT22;64572;50.950;3.676;2023-02-01T16:31:37;8.80;92.80
75893;DHT22;64572;50.950;3.676;2023-02-01T16:34:04;8.80;92.60
75893;DHT22;64572;50.950;3.676;2023-02-01T16:36:32;8.90;92.40
75893;DHT22;64572;50.950;3.676;2023-02-01T16:38:57;8.80;93.10
75893;DHT22;64572;50.950;3.676;2023-02-01T16:41:24;8.80;92.90
75893;DHT22;64572;50.950;3.676;2023-02-01T16:43:52;8.80;93.00
75893;DHT22;64572;50.950;3.676;2023-02-01T16:46:20;8.70;93.20
75893;DHT22;64572;50.950;3.676;2023-02-01T16:48:58;8.80;93.50
75893;DHT22;64572;50.950;3.676;2023-02-01T16:51:28;8.70;93.30
75893;DHT22;64572;50.950;3.676;2023-02-01T16:53:54;8.70;93.30
75893;DHT22;64572;50.950;3.676;2023-02-01T16:56:23;8.70;93.50
75893;DHT22;64572;50.950;3.676;2023-02-01T16:58:49;8.70;93.30
75893;DHT22;64572;50.950;3.676;2023-02-01T17:01:17;8.60;93.80
75893;DHT22;64572;50.950;3.676;2023-02-01T17:03:44;8.60;93.80
75893;DHT22;64572;50.950;3.676;2023-02-01T17:06:13;8.60;93.70
75893;DHT22;64572;50.950;3.676;2023-02-01T17:08:41;8.70;93.60
75893;DHT22;64572;50.950;3.676;2023-02-01T17:11:10;8.60;93.90
75893;DHT22;64572;50.950;3.676;2023-02-01T17:13:36;8.70;93.90
75893;DHT22;64572;50.950;3.676;2023-02-01T17:16:30;8.70;93.80
75893;DHT22;64572;50.950;3.676;2023-02-01T17:19:12;8.60;94.40
75893;DHT22;64572;50.950;3.676;2023-02-01T17:21:52;8.60;94.50
75893;DHT22;64572;50.950;3.676;2023-02-01T17:24:22;8.60;94.30
75893;DHT22;64572;50.950;3.676;2023-02-01T17:26:47;8.60;94.50
75893;DHT22;64572;50.950;3.676;2023-02-01T17:29:16;8.60;94.50
75893;DHT22;64572;50.950;3.676;2023-02-01T17:31:44;8.60;94.30
75893;DHT22;64572;50.950;3.676;2023-02-01T17:34:11;8.70;94.20
75893;DHT22;64572;50.950;3.676;2023-02-01T17:36:40;8.60;94.50
75893;DHT22;64572;50.950;3.676;2023-02-01T17:39:07;8.60;94.60
75893;DHT22;64572;50.950;3.676;2023-02-01T17:41:34;8.60;94.70
75893;DHT22;64572;50.950;3.676;2023-02-01T17:44:01;8.60;94.80
75893;DHT22;64572;50.950;3.676;2023-02-01T17:46:27;8.60;94.70
75893;DHT22;64572;50.950;3.676;2023-02-01T17:48:53;8.50;94.90
75893;DHT22;64572;50.950;3.676;2023-02-01T17:51:27;8.60;94.60
75893;DHT22;64572;50.950;3.676;2023-02-01T17:53:53;8.60;94.50
75893;DHT22;64572;50.950;3.676;2023-02-01T17:56:24;8.60;94.60
75893;DHT22;64572;50.950;3.676;2023-02-01T17:58:50;8.60;94.80
75893;DHT22;64572;50.950;3.676;2023-02-01T18:01:21;8.60;94.70
75893;DHT22;64572;50.950;3.676;2023-02-01T18:03:47;8.60;94.80
75893;DHT22;64572;50.950;3.676;2023-02-01T18:06:18;8.60;94.80
75893;DHT22;64572;50.950;3.676;2023-02-01T18:08:44;8.60;95.00
75893;DHT22;64572;50.950;3.676;2023-02-01T18:11:20;8.60;94.80
75893;DHT22;64572;50.950;3.676;2023-02-01T18:13:47;8.60;94.90
75893;DHT22;64572;50.950;3.676;2023-02-01T18:18:45;8.60;94.90
75893;DHT22;64572;50.950;3.676;2023-02-01T18:21:12;8.60;95.00
75893;DHT22;64572;50.950;3.676;2023-02-01T18:23:37;8.50;95.00
75893;DHT22;64572;50.950;3.676;2023-02-01T18:26:03;8.60;95.10
75893;DHT22;64572;50.950;3.676;2023-02-01T18:28:30;8.60;95.00
75893;DHT22;64572;50.950;3.676;2023-02-01T18:30:55;8.60;94.90
75893;DHT22;64572;50.950;3.676;2023-02-01T18:33:21;8.60;94.80
75893;DHT22;64572;50.950;3.676;2023-02-01T18:35:48;8.60;94.80